Time;durP1;ratioP1;P1;durP2;ratioP2;P2;SDS_P1;SDS_P2;PMS_P1;PMS_P2;Temp;Humidity;BMP_temperature;BMP_pressure;BME280_temperature;BME280_humidity;BME280_pressure;Samples;Min_cycle;Max_cycle;Signal;HPM_P1;HPM_P2
2021/12/29 00:02:08;;;;;;;46.00;21.02;;;4.20;99.90;;;;;;4992868;28;20030;-77
2021/12/29 00:04:34;;;;;;;51.78;23.48;;;4.30;99.90;;;;;;4997416;28;20014;-78
2021/12/29 00:07:00;;;;;;;59.30;23.27;;;4.30;99.90;;;;;;4997357;28;20030;-78
2021/12/29 00:09:26;;;;;;;57.20;23.20;;;;;;;;;;4998320;28;20045;-78
2021/12/29 00:11:52;;;;;;;55.85;23.73;;;4.40;99.90;;;;;;5001897;28;20033;-78
2021/12/29 00:14:18;;;;;;;50.00;23.85;;;4.60;99.90;;;;;;4999365;28;20054;-78
2021/12/29 00:16:44;;;;;;;55.83;25.02;;;4.40;99.90;;;;;;5001103;28;20026;-79
2021/12/29 00:19:10;;;;;;;56.60;24.58;;;;;;;;;;5000631;28;20041;-78
2021/12/29 00:21:37;;;;;;;49.53;23.67;;;;;;;;;;4999739;28;20034;-78
2021/12/29 00:24:04;;;;;;;58.28;24.02;;;4.30;99.90;;;;;;4996701;28;20093;-78
2021/12/29 00:26:31;;;;;;;55.63;23.30;;;4.40;99.90;;;;;;4996904;28;20023;-78
2021/12/29 00:29:01;;;;;;;63.25;25.58;;;4.40;99.90;;;;;;4995069;28;20034;-78
2021/12/29 00:31:28;;;;;;;55.78;23.67;;;4.20;99.90;;;;;;4999011;28;20041;-78
2021/12/29 00:33:54;;;;;;;64.35;25.65;;;4.30;99.90;;;;;;4994907;28;20037;-77
2021/12/29 00:36:20;;;;;;;63.22;25.88;;;;;;;;;;4997210;28;20500;-78
2021/12/29 00:38:46;;;;;;;53.17;25.10;;;;;;;;;;5002384;28;20097;-78
2021/12/29 00:41:12;;;;;;;50.85;26.05;;;4.20;99.90;;;;;;5002720;28;20045;-78
2021/12/29 00:43:38;;;;;;;53.95;25.40;;;4.40;99.90;;;;;;5003234;28;20181;-78
2021/12/29 00:46:06;;;;;;;55.10;23.80;;;4.20;99.90;;;;;;4994945;28;20513;-77
2021/12/29 00:48:36;;;;;;;54.70;24.50;;;4.40;99.90;;;;;;5006347;28;20258;-79
2021/12/29 00:51:03;;;;;;;63.28;24.23;;;4.40;99.90;;;;;;4993888;28;20030;-78
2021/12/29 00:53:29;;;;;;;51.05;23.88;;;;;;;;;;4979743;28;20039;-77
2021/12/29 00:55:55;;;;;;;60.95;25.60;;;4.30;99.90;;;;;;4991123;28;20030;-77
2021/12/29 00:58:20;;;;;;;60.65;25.67;;;4.40;99.90;;;;;;4986144;28;20030;-78
2021/12/29 01:00:46;;;;;;;49.01;21.75;;;4.30;99.90;;;;;;4643076;28;10000773;-76
2021/12/29 01:03:12;;;;;;;50.50;22.30;;;4.30;99.90;;;;;;4991568;28;20030;-76
2021/12/29 01:05:39;;;;;;;48.67;21.70;;;4.20;99.90;;;;;;5000094;28;20034;-77
2021/12/29 01:08:05;;;;;;;51.22;22.77;;;4.50;99.90;;;;;;5000457;28;20121;-77
2021/12/29 01:10:30;;;;;;;53.22;22.13;;;4.30;99.90;;;;;;4997651;28;20026;-77
2021/12/29 01:12:59;;;;;;;48.60;21.70;;;4.20;99.90;;;;;;4999249;28;20030;-78
2021/12/29 01:15:33;;;;;;;45.80;20.77;;;4.10;99.90;;;;;;5014956;28;20026;-77
2021/12/29 01:18:01;;;;;;;49.58;22.13;;;4.00;99.90;;;;;;5021660;28;20050;-77
2021/12/29 01:20:29;;;;;;;48.97;21.45;;;4.00;99.90;;;;;;5018946;28;20023;-76
2021/12/29 01:22:54;;;;;;;48.88;21.55;;;4.10;99.90;;;;;;5012647;28;20021;-77
2021/12/29 01:25:21;;;;;;;48.53;22.77;;;3.90;99.90;;;;;;4989202;28;20035;-77
2021/12/29 01:27:48;;;;;;;47.42;21.83;;;;;;;;;;4985014;28;20031;-77
2021/12/29 01:30:14;;;;;;;52.30;22.65;;;4.00;99.90;;;;;;4997090;28;20028;-78
2021/12/29 01:32:41;;;;;;;46.80;20.85;;;3.90;99.90;;;;;;5005009;28;20054;-77
2021/12/29 01:35:08;;;;;;;53.75;23.13;;;3.90;99.90;;;;;;5005688;28;20030;-77
2021/12/29 01:37:34;;;;;;;50.00;22.88;;;4.10;99.90;;;;;;5005778;28;20019;-78
2021/12/29 01:40:00;;;;;;;41.00;21.23;;;4.00;99.90;;;;;;5004311;28;20039;-78
2021/12/29 01:42:26;;;;;;;54.80;23.08;;;;;;;;;;5003579;28;20544;-77
2021/12/29 01:44:52;;;;;;;47.10;21.63;;;3.80;99.90;;;;;;5004413;28;20075;-77
2021/12/29 01:47:30;;;;;;;57.97;23.60;;;3.90;99.90;;;;;;5002589;28;20058;-77
2021/12/29 01:49:56;;;;;;;49.13;22.95;;;4.00;99.90;;;;;;5002130;28;20034;-77
2021/12/29 01:52:27;;;;;;;50.08;22.58;;;3.60;99.90;;;;;;5001695;28;20027;-77
2021/12/29 01:54:52;;;;;;;48.03;22.15;;;3.80;99.90;;;;;;5001547;28;20049;-77
2021/12/29 01:57:19;;;;;;;44.72;22.45;;;4.00;99.90;;;;;;5001835;28;20289;-77
2021/12/29 01:59:45;;;;;;;45.97;21.38;;;;;;;;;;5001293;28;20037;-77
2021/12/29 02:02:14;;;;;;;48.80;21.85;;;;;;;;;;5000086;28;20080;-76
2021/12/29 02:04:42;;;;;;;48.50;21.77;;;4.00;99.90;;;;;;5001493;28;20038;-77
2021/12/29 02:07:08;;;;;;;43.42;21.50;;;;;;;;;;4999342;28;20035;-77
2021/12/29 02:09:34;;;;;;;44.10;20.85;;;4.10;99.90;;;;;;4999155;28;20030;-79
2021/12/29 02:12:01;;;;;;;39.30;20.77;;;4.10;99.90;;;;;;4999571;28;20058;-77
2021/12/29 02:14:26;;;;;;;39.20;20.52;;;4.30;99.90;;;;;;4998478;28;20380;-77
2021/12/29 02:16:52;;;;;;;45.63;21.55;;;;;;;;;;4999760;28;20031;-77
2021/12/29 02:19:18;;;;;;;46.65;20.50;;;4.40;99.90;;;;;;4998488;28;20035;-76
2021/12/29 02:21:53;;;;;;;44.00;20.75;;;4.60;99.90;;;;;;4992567;28;20033;-77
2021/12/29 02:24:22;;;;;;;36.13;20.35;;;4.50;99.90;;;;;;4987972;28;20496;-77
2021/12/29 02:26:50;;;;;;;40.85;21.02;;;4.50;99.90;;;;;;4976751;28;20030;-77
2021/12/29 02:29:17;;;;;;;42.88;20.02;;;4.50;99.90;;;;;;5029029;23;20053;-72
2021/12/29 02:31:44;;;;;;;37.17;17.85;;;4.60;99.90;;;;;;5032756;28;20033;-72
2021/12/29 02:34:13;;;;;;;32.60;18.55;;;4.60;99.90;;;;;;5034129;28;20029;-71
2021/12/29 02:36:43;;;;;;;34.08;19.15;;;4.70;99.90;;;;;;5033527;28;20105;-72
2021/12/29 02:39:11;;;;;;;36.28;18.95;;;4.60;99.90;;;;;;5033732;28;20040;-72
2021/12/29 02:41:42;;;;;;;28.23;17.75;;;4.70;99.90;;;;;;5033863;28;20103;-72
2021/12/29 02:44:10;;;;;;;31.92;17.13;;;4.80;99.90;;;;;;5034207;28;20084;-72
2021/12/29 02:46:37;;;;;;;33.40;16.92;;;4.80;99.90;;;;;;5033243;28;20057;-72
2021/12/29 02:49:03;;;;;;;29.98;17.92;;;4.90;99.90;;;;;;5033979;28;20018;-73
2021/12/29 02:51:31;;;;;;;29.42;17.48;;;4.80;99.90;;;;;;5032950;28;20092;-72
2021/12/29 02:53:57;;;;;;;32.33;17.50;;;4.80;99.90;;;;;;5033482;28;20382;-71
2021/12/29 02:56:24;;;;;;;30.30;16.88;;;4.60;99.90;;;;;;5033596;28;20117;-70
2021/12/29 02:58:50;;;;;;;24.63;16.42;;;;;;;;;;5033515;28;20021;-74
2021/12/29 03:01:16;;;;;;;36.85;16.52;;;4.80;99.90;;;;;;5033314;28;20437;-73
2021/12/29 03:03:42;;;;;;;31.77;16.20;;;4.80;99.90;;;;;;5033139;28;20057;-72
2021/12/29 03:06:09;;;;;;;30.25;16.70;;;4.80;99.90;;;;;;5032666;28;20069;-74
2021/12/29 03:08:35;;;;;;;33.10;16.10;;;4.80;99.90;;;;;;5021879;28;20048;-73
2021/12/29 03:11:02;;;;;;;26.33;16.17;;;4.80;99.90;;;;;;5033222;28;20053;-70
2021/12/29 03:13:30;;;;;;;33.10;16.70;;;4.80;99.90;;;;;;5033520;28;20025;-72
2021/12/29 03:15:57;;;;;;;28.92;15.60;;;4.90;99.90;;;;;;5032969;28;20101;-73
2021/12/29 03:18:23;;;;;;;25.98;15.65;;;4.90;99.90;;;;;;5033257;28;20029;-73
2021/12/29 03:20:49;;;;;;;26.95;16.45;;;5.00;99.90;;;;;;5032793;28;20391;-73
2021/12/29 03:23:15;;;;;;;27.58;15.25;;;4.90;99.90;;;;;;5033305;28;20105;-72
2021/12/29 03:25:41;;;;;;;24.02;14.63;;;5.00;99.90;;;;;;5033107;28;20033;-71
2021/12/29 03:28:07;;;;;;;33.28;15.27;;;5.10;99.90;;;;;;5032890;28;20028;-72
2021/12/29 03:30:39;;;;;;;26.60;14.43;;;5.10;99.90;;;;;;5033091;28;20411;-72
2021/12/29 03:33:07;;;;;;;27.73;13.35;;;5.10;99.90;;;;;;5029469;28;20464;-71
2021/12/29 03:35:47;;;;;;;24.80;13.73;;;5.20;99.90;;;;;;5031634;28;20159;-72
2021/12/29 03:38:21;;;;;;;24.98;13.52;;;5.20;99.90;;;;;;5032643;28;20017;-73
2021/12/29 03:40:47;;;;;;;;;;;5.30;99.90;;;;;;5033481;28;20030;-72
2021/12/29 03:43:13;;;;;;;26.60;13.02;;;5.30;99.90;;;;;;5032654;28;20370;-71
2021/12/29 03:45:43;;;;;;;31.25;16.25;;;5.30;99.90;;;;;;5032430;28;20594;-71
2021/12/29 03:48:09;;;;;;;20.98;13.73;;;5.30;99.90;;;;;;5032440;28;20017;-71
2021/12/29 03:50:36;;;;;;;31.98;14.93;;;5.20;99.90;;;;;;5031973;28;20025;-70
2021/12/29 03:53:02;;;;;;;21.05;13.60;;;5.10;99.90;;;;;;5032658;28;20029;-73
2021/12/29 03:55:28;;;;;;;26.95;14.85;;;5.00;99.90;;;;;;5033091;28;20040;-72
2021/12/29 03:57:54;;;;;;;27.52;14.75;;;4.90;99.90;;;;;;5032077;28;20395;-72
2021/12/29 04:00:21;;;;;;;20.65;14.10;;;4.90;99.90;;;;;;5032438;28;20028;-74
2021/12/29 04:02:47;;;;;;;31.67;14.95;;;4.80;99.90;;;;;;5032612;28;20487;-73
2021/12/29 04:05:16;;;;;;;31.08;15.68;;;4.90;99.90;;;;;;5031755;28;20112;-69
2021/12/29 04:07:42;;;;;;;35.38;15.30;;;4.90;99.90;;;;;;5031602;28;20018;-72
2021/12/29 04:10:09;;;;;;;27.73;15.93;;;4.90;99.90;;;;;;5032623;28;20018;-72
2021/12/29 04:12:35;;;;;;;29.20;15.18;;;4.90;99.90;;;;;;5030740;28;20064;-72
2021/12/29 04:15:02;;;;;;;33.20;15.95;;;4.90;99.90;;;;;;5031163;28;20030;-72
2021/12/29 04:17:36;;;;;;;31.08;14.48;;;4.70;99.90;;;;;;5031922;28;20053;-71
2021/12/29 04:22:49;;;;;;;26.98;14.63;;;;;;;;;;5031757;28;20060;-72
2021/12/29 04:25:15;;;;;;;45.00;17.50;;;4.90;99.90;;;;;;5031175;28;20032;-72
2021/12/29 04:27:41;;;;;;;34.45;15.52;;;5.00;99.90;;;;;;5030151;28;20029;-73
2021/12/29 04:30:07;;;;;;;28.30;14.68;;;5.00;99.90;;;;;;5030927;28;20034;-71
2021/12/29 04:32:32;;;;;;;24.60;15.10;;;5.00;99.90;;;;;;5031775;28;20475;-72
2021/12/29 04:34:58;;;;;;;34.83;15.13;;;5.00;99.90;;;;;;5031516;28;20502;-72
2021/12/29 04:37:23;;;;;;;32.47;16.58;;;5.80;99.90;;;;;;5031728;28;20022;-72
2021/12/29 04:39:49;;;;;;;23.13;15.25;;;4.90;99.90;;;;;;5031072;28;20123;-74
2021/12/29 04:42:14;;;;;;;28.42;14.82;;;4.80;99.90;;;;;;5031506;28;20038;-72
2021/12/29 04:44:40;;;;;;;26.38;14.75;;;4.90;99.90;;;;;;5031541;28;20026;-71
2021/12/29 04:47:07;;;;;;;27.55;15.15;;;4.90;99.90;;;;;;5030773;28;20029;-73
2021/12/29 04:49:40;;;;;;;26.75;15.63;;;4.90;99.90;;;;;;5031043;28;20024;-72
2021/12/29 04:52:07;;;;;;;36.15;15.30;;;4.90;99.90;;;;;;5031828;28;20036;-72
2021/12/29 04:54:34;;;;;;;24.52;15.23;;;4.90;99.90;;;;;;5031316;28;20072;-73
2021/12/29 04:57:00;;;;;;;32.63;16.38;;;4.90;99.90;;;;;;5022478;28;20030;-71
2021/12/29 04:59:26;;;;;;;26.42;15.90;;;4.90;99.90;;;;;;5011927;28;20109;-72
2021/12/29 05:01:53;;;;;;;30.25;14.52;;;4.90;99.90;;;;;;5030575;28;20030;-71
2021/12/29 05:04:33;;;;;;;29.70;14.77;;;4.90;99.90;;;;;;5031124;28;20041;-72
2021/12/29 05:09:45;;;;;;;29.70;16.77;;;5.00;99.90;;;;;;5031761;28;20028;-72
2021/12/29 05:12:11;;;;;;;32.50;16.55;;;5.00;99.90;;;;;;5031198;28;20018;-73
2021/12/29 05:14:37;;;;;;;31.33;14.55;;;5.00;99.90;;;;;;5031277;28;20388;-71
2021/12/29 05:17:05;;;;;;;28.38;15.90;;;5.00;99.90;;;;;;5029652;28;20029;-72
2021/12/29 05:19:31;;;;;;;28.17;15.48;;;5.00;99.90;;;;;;5030706;28;20114;-73
2021/12/29 05:21:56;;;;;;;24.20;14.82;;;4.90;99.90;;;;;;5031150;28;20109;-71
2021/12/29 05:24:22;;;;;;;28.23;14.27;;;4.80;99.90;;;;;;5031399;28;20545;-72
2021/12/29 05:26:48;;;;;;;20.20;13.90;;;4.80;99.90;;;;;;5029960;28;20121;-72
2021/12/29 05:29:13;;;;;;;23.58;14.10;;;4.80;99.90;;;;;;5031166;28;20025;-73
2021/12/29 05:31:39;;;;;;;27.83;15.48;;;4.80;99.90;;;;;;5030263;28;20026;-69
2021/12/29 05:34:04;;;;;;;34.05;14.48;;;4.80;99.90;;;;;;5028990;28;20360;-72
2021/12/29 05:36:30;;;;;;;34.15;15.02;;;4.90;99.90;;;;;;5031200;28;20025;-72
2021/12/29 05:38:57;;;;;;;27.33;14.70;;;4.90;99.90;;;;;;5032120;28;20511;-72
2021/12/29 05:41:23;;;;;;;24.52;13.77;;;4.80;99.90;;;;;;5031244;28;20033;-72
2021/12/29 05:43:49;;;;;;;21.60;13.40;;;4.80;99.90;;;;;;5032271;28;20030;-71
2021/12/29 05:46:15;;;;;;;25.23;14.23;;;4.90;99.90;;;;;;5031705;28;20524;-71
2021/12/29 05:48:41;;;;;;;27.23;13.70;;;4.80;99.90;;;;;;5030488;28;20458;-72
2021/12/29 05:51:06;;;;;;;33.97;15.07;;;4.80;99.90;;;;;;5030397;28;20022;-71
2021/12/29 05:53:32;;;;;;;34.35;15.82;;;4.70;99.90;;;;;;5031003;28;20030;-73
2021/12/29 05:55:58;;;;;;;37.40;15.02;;;4.70;99.90;;;;;;5031013;28;20045;-72
2021/12/29 05:58:23;;;;;;;30.23;14.15;;;4.80;99.90;;;;;;5030926;28;20483;-71
2021/12/29 06:00:49;;;;;;;36.60;14.82;;;4.80;99.90;;;;;;5033748;28;20025;-68
2021/12/29 06:03:15;;;;;;;27.90;14.55;;;4.80;99.90;;;;;;5034360;28;20033;-71
2021/12/29 06:05:41;;;;;;;27.67;13.27;;;4.80;99.90;;;;;;5036611;28;20028;-73
2021/12/29 06:08:07;;;;;;;27.45;13.60;;;4.90;99.90;;;;;;5038892;28;20029;-73
2021/12/29 06:10:33;;;;;;;30.17;13.38;;;4.90;99.90;;;;;;5036378;28;20136;-71
2021/12/29 06:12:59;;;;;;;30.38;14.13;;;4.90;99.90;;;;;;5033954;28;20155;-72
2021/12/29 06:15:25;;;;;;;32.45;13.52;;;5.00;99.90;;;;;;5032603;28;20041;-73
2021/12/29 06:17:51;;;;;;;32.97;12.40;;;5.00;99.90;;;;;;5031045;28;20387;-74
2021/12/29 06:20:16;;;;;;;21.67;12.23;;;5.10;99.90;;;;;;5029755;28;20037;-73
2021/12/29 06:22:42;;;;;;;20.35;11.32;;;5.10;99.90;;;;;;5031291;28;20052;-74
2021/12/29 06:25:15;;;;;;;22.95;12.02;;;5.20;99.90;;;;;;5031050;28;20030;-73
2021/12/29 06:27:41;;;;;;;22.52;10.55;;;5.20;99.90;;;;;;5033554;28;20017;-72
2021/12/29 06:30:10;;;;;;;19.33;11.52;;;5.20;99.90;;;;;;5027612;28;20030;-73
2021/12/29 06:32:37;;;;;;;25.13;12.50;;;5.20;99.90;;;;;;5034291;28;20091;-71
2021/12/29 06:35:04;;;;;;;26.30;12.48;;;5.20;99.90;;;;;;5032882;28;20403;-71
2021/12/29 06:37:30;;;;;;;27.00;12.13;;;;;;;;;;5033662;28;20099;-73
2021/12/29 06:39:55;;;;;;;21.70;11.60;;;5.20;99.90;;;;;;5034118;28;20036;-71
2021/12/29 06:42:21;;;;;;;28.40;13.10;;;5.20;99.90;;;;;;5034223;28;20104;-71
2021/12/29 06:44:47;;;;;;;27.02;11.93;;;5.20;99.90;;;;;;5033873;28;20045;-70
2021/12/29 06:47:14;;;;;;;40.13;11.90;;;5.20;99.90;;;;;;5034910;28;20033;-71
2021/12/29 06:49:40;;;;;;;23.50;11.88;;;5.20;99.90;;;;;;5033625;28;20078;-71
2021/12/29 06:52:06;;;;;;;32.10;13.07;;;;;;;;;;5034777;28;20037;-71
2021/12/29 06:54:33;;;;;;;34.47;11.32;;;5.30;99.90;;;;;;5034096;28;20399;-70
2021/12/29 06:56:59;;;;;;;19.02;11.18;;;5.30;99.90;;;;;;5033431;28;20032;-72
2021/12/29 06:59:25;;;;;;;21.33;11.77;;;5.30;99.90;;;;;;5031659;28;20067;-71
2021/12/29 07:01:50;;;;;;;21.35;11.70;;;5.30;99.90;;;;;;5030309;28;20457;-71
2021/12/29 07:04:16;;;;;;;18.15;11.38;;;5.30;99.90;;;;;;5030798;28;20068;-73
2021/12/29 07:06:42;;;;;;;24.35;11.68;;;5.30;99.90;;;;;;5045031;28;20036;-71
2021/12/29 07:09:08;;;;;;;23.30;11.13;;;6.30;99.90;;;;;;5035132;28;20025;-72
2021/12/29 07:11:36;;;;;;;24.13;11.88;;;;;;;;;;5043724;28;20495;-72
2021/12/29 07:14:03;;;;;;;30.85;11.20;;;5.30;99.90;;;;;;5044674;28;20067;-72
2021/12/29 07:16:30;;;;;;;18.05;11.20;;;5.20;99.90;;;;;;5031171;28;20033;-71
2021/12/29 07:18:55;;;;;;;28.95;12.40;;;5.20;99.90;;;;;;5040506;28;20087;-73
2021/12/29 07:21:21;;;;;;;26.80;12.48;;;5.20;99.90;;;;;;5047451;28;20080;-71
2021/12/29 07:23:46;;;;;;;31.25;12.63;;;5.20;99.90;;;;;;5044139;28;20096;-72
2021/12/29 07:26:12;;;;;;;25.75;11.57;;;5.20;99.90;;;;;;5031532;28;20029;-71
2021/12/29 07:28:39;;;;;;;29.45;12.77;;;5.20;99.90;;;;;;5032538;28;20104;-70
2021/12/29 07:31:05;;;;;;;22.40;12.35;;;5.30;99.90;;;;;;5042890;28;20075;-70
2021/12/29 07:33:32;;;;;;;27.35;12.15;;;5.30;99.90;;;;;;5030299;28;20026;-71
2021/12/29 07:35:58;;;;;;;21.65;11.45;;;5.40;99.90;;;;;;5039405;28;20047;-71
2021/12/29 07:38:23;;;;;;;27.85;11.75;;;5.40;99.90;;;;;;5032027;28;20045;-71
2021/12/29 07:40:49;;;;;;;29.48;12.40;;;5.40;99.90;;;;;;5034313;28;20075;-71
2021/12/29 07:43:15;;;;;;;22.00;12.30;;;5.40;99.90;;;;;;5033099;28;20116;-74
2021/12/29 07:45:42;;;;;;;28.25;11.95;;;7.70;99.90;;;;;;5039538;28;20029;-73
2021/12/29 07:48:09;;;;;;;24.45;12.23;;;5.30;99.90;;;;;;5027580;28;20033;-71
2021/12/29 07:50:36;;;;;;;32.45;13.38;;;5.40;99.90;;;;;;5046646;28;20033;-74
2021/12/29 07:53:01;;;;;;;20.65;11.57;;;5.40;99.90;;;;;;5042274;28;20025;-71
2021/12/29 07:55:27;;;;;;;36.88;12.55;;;5.50;99.90;;;;;;5028873;28;20025;-72
2021/12/29 07:57:53;;;;;;;28.58;11.88;;;5.50;99.90;;;;;;5033675;28;20034;-71
2021/12/29 08:00:19;;;;;;;26.58;11.55;;;5.50;99.90;;;;;;5041912;28;20107;-74
2021/12/29 08:02:47;;;;;;;30.52;12.27;;;5.40;99.90;;;;;;5030537;28;20029;-72
2021/12/29 08:05:13;;;;;;;30.77;12.00;;;5.40;99.90;;;;;;5041160;28;20029;-73
2021/12/29 08:07:40;;;;;;;35.88;12.30;;;5.40;99.90;;;;;;5038192;28;20060;-72
2021/12/29 08:10:06;;;;;;;32.92;12.30;;;5.30;99.90;;;;;;5033165;28;20026;-74
2021/12/29 08:12:32;;;;;;;31.15;13.25;;;5.30;99.90;;;;;;5030122;28;20029;-72
2021/12/29 08:14:57;;;;;;;24.80;12.40;;;5.30;99.90;;;;;;5049349;28;20505;-74
2021/12/29 08:17:23;;;;;;;33.10;14.65;;;5.20;99.90;;;;;;5034590;28;20029;-72
2021/12/29 08:19:50;;;;;;;27.30;12.63;;;5.30;99.90;;;;;;5032198;28;20029;-72
2021/12/29 08:22:17;;;;;;;28.70;11.52;;;5.90;99.90;;;;;;5033119;28;20394;-74
2021/12/29 08:24:43;;;;;;;24.08;13.02;;;;;;;;;;5030578;28;20036;-72
2021/12/29 08:27:09;;;;;;;35.80;12.95;;;5.40;99.90;;;;;;5043138;28;20032;-74
2021/12/29 08:29:35;;;;;;;39.42;12.50;;;;;;;;;;5061305;22;20057;-76
2021/12/29 08:32:01;;;;;;;37.28;12.85;;;;;;;;;;5031977;28;20017;-78
2021/12/29 08:34:27;;;;;;;31.08;13.30;;;5.40;99.90;;;;;;5043141;28;20014;-78
2021/12/29 08:36:53;;;;;;;25.88;13.73;;;5.30;99.90;;;;;;5040564;28;20033;-78
2021/12/29 08:39:19;;;;;;;25.70;12.30;;;5.50;99.90;;;;;;5035433;28;20081;-79
2021/12/29 08:41:46;;;;;;;32.90;13.15;;;5.40;99.90;;;;;;5012695;28;20545;-77
2021/12/29 08:44:12;;;;;;;32.58;12.65;;;5.60;99.90;;;;;;5002059;28;20107;-79
2021/12/29 08:46:38;;;;;;;27.20;12.35;;;6.40;99.90;;;;;;4999014;28;20038;-79
2021/12/29 08:49:04;;;;;;;32.05;12.27;;;5.70;99.90;;;;;;5007832;28;20114;-79
2021/12/29 08:51:30;;;;;;;29.92;11.85;;;8.00;99.90;;;;;;5001944;28;20044;-79
2021/12/29 08:53:57;;;;;;;25.23;12.85;;;5.50;99.90;;;;;;5018085;28;20038;-79
2021/12/29 08:56:23;;;;;;;28.50;11.40;;;5.90;99.90;;;;;;5003467;28;20050;-77
2021/12/29 08:58:50;;;;;;;32.75;12.52;;;5.70;99.90;;;;;;5012916;28;20048;-79
2021/12/29 09:01:16;;;;;;;25.45;12.50;;;5.90;99.90;;;;;;4999237;28;20029;-77
2021/12/29 09:03:42;;;;;;;22.83;12.07;;;5.80;99.90;;;;;;5005277;28;20031;-79
2021/12/29 09:06:08;;;;;;;31.02;12.15;;;5.80;99.90;;;;;;5005068;28;20034;-79
2021/12/29 09:08:33;;;;;;;38.55;13.40;;;5.80;99.90;;;;;;5020194;28;20080;-78
2021/12/29 09:10:59;;;;;;;35.47;13.75;;;5.80;99.90;;;;;;5000333;28;20027;-78
2021/12/29 09:13:25;;;;;;;22.17;12.23;;;5.80;99.90;;;;;;5007275;28;20026;-78
2021/12/29 09:15:53;;;;;;;29.70;11.77;;;5.90;99.90;;;;;;5007799;28;20611;-76
2021/12/29 09:18:19;;;;;;;26.13;12.57;;;5.90;99.90;;;;;;5011219;28;20026;-78
2021/12/29 09:20:46;;;;;;;36.45;14.10;;;6.00;99.90;;;;;;4990170;28;20041;-76
2021/12/29 09:23:14;;;;;;;23.30;12.73;;;6.00;99.90;;;;;;5004573;28;20022;-77
2021/12/29 09:25:41;;;;;;;30.45;12.25;;;6.10;99.90;;;;;;5007746;28;20033;-77
2021/12/29 09:28:08;;;;;;;30.15;12.30;;;6.00;99.90;;;;;;4998326;28;20072;-77
2021/12/29 09:30:36;;;;;;;29.23;12.10;;;6.10;99.90;;;;;;4987382;28;20030;-77
2021/12/29 09:33:03;;;;;;;30.20;13.43;;;6.10;99.90;;;;;;5000808;28;20026;-77
2021/12/29 09:35:29;;;;;;;35.53;13.95;;;6.20;99.90;;;;;;5010277;28;20030;-76
2021/12/29 09:37:56;;;;;;;38.92;15.23;;;6.20;99.90;;;;;;5012268;28;20022;-78
2021/12/29 09:40:23;;;;;;;30.40;12.88;;;6.30;99.90;;;;;;5001341;28;20030;-78
2021/12/29 09:42:52;;;;;;;28.50;13.80;;;6.30;99.90;;;;;;5007709;28;20078;-77
2021/12/29 09:45:18;;;;;;;32.60;12.18;;;6.20;99.90;;;;;;5005693;28;20019;-78
2021/12/29 09:47:44;;;;;;;37.05;12.40;;;6.00;99.90;;;;;;5014912;28;20424;-78
2021/12/29 09:50:13;;;;;;;32.15;13.32;;;6.40;99.90;;;;;;5011758;28;20033;-78
2021/12/29 09:52:39;;;;;;;32.25;13.55;;;6.60;99.90;;;;;;5013211;28;20034;-77
2021/12/29 09:55:09;;;;;;;32.10;13.82;;;6.50;99.90;;;;;;5015407;28;20452;-78
2021/12/29 09:57:36;;;;;;;30.10;12.35;;;6.40;99.90;;;;;;5021521;28;20030;-77
2021/12/29 10:00:06;;;;;;;21.70;12.68;;;6.50;99.90;;;;;;5004713;28;20027;-77
2021/12/29 10:02:32;;;;;;;30.92;13.75;;;6.30;99.90;;;;;;5010877;28;20029;-78
2021/12/29 10:04:59;;;;;;;29.48;13.52;;;6.50;99.90;;;;;;5024072;28;20569;-78
2021/12/29 10:07:26;;;;;;;33.58;13.43;;;6.50;99.90;;;;;;4998951;28;20077;-78
2021/12/29 10:09:52;;;;;;;32.72;12.88;;;6.60;99.90;;;;;;4999638;28;20033;-78
2021/12/29 10:12:20;;;;;;;25.17;13.68;;;6.60;99.90;;;;;;5008754;28;20022;-78
2021/12/29 10:14:55;;;;;;;34.38;14.32;;;6.80;99.90;;;;;;5006325;28;20033;-78
2021/12/29 10:17:27;;;;;;;25.20;13.98;;;6.70;99.90;;;;;;4987624;28;20038;-75
2021/12/29 10:20:05;;;;;;;26.70;13.68;;;6.80;99.90;;;;;;4995879;28;20672;-76
2021/12/29 10:22:31;;;;;;;29.92;13.18;;;6.80;99.90;;;;;;4991792;28;20021;-75
2021/12/29 10:25:11;;;;;;;29.17;14.45;;;7.10;99.90;;;;;;5012045;28;20042;-77
2021/12/29 10:27:39;;;;;;;35.50;15.10;;;6.80;99.90;;;;;;5009710;28;20030;-76
2021/12/29 10:30:18;;;;;;;31.38;15.38;;;6.90;99.90;;;;;;5012011;28;20424;-78
2021/12/29 10:32:44;;;;;;;27.85;13.82;;;;;;;;;;5014291;28;20030;-77
2021/12/29 10:35:28;;;;;;;36.05;13.32;;;7.00;99.90;;;;;;5012380;28;20088;-77
2021/12/29 10:38:07;;;;;;;38.78;17.65;;;6.80;99.90;;;;;;5003103;28;20475;-77
2021/12/29 10:40:34;;;;;;;22.98;13.63;;;6.80;99.90;;;;;;5012860;28;20030;-75
2021/12/29 10:43:01;;;;;;;40.90;15.23;;;7.00;99.90;;;;;;5010138;28;20487;-77
2021/12/29 10:45:35;;;;;;;32.05;14.05;;;7.00;99.90;;;;;;5001384;28;20121;-75
2021/12/29 10:48:03;;;;;;;36.08;14.85;;;7.00;99.90;;;;;;4979362;28;20105;-76
2021/12/29 10:50:29;;;;;;;26.98;13.65;;;;;;;;;;5005061;28;20018;-78
2021/12/29 10:52:58;;;;;;;37.20;14.57;;;6.90;99.90;;;;;;5002650;28;20030;-76
2021/12/29 10:55:31;;;;;;;37.40;14.55;;;;;;;;;;5004617;28;20151;-74
2021/12/29 10:58:18;;;;;;;40.53;16.23;;;6.90;99.90;;;;;;5011383;28;20026;-77
2021/12/29 11:00:55;;;;;;;34.63;17.63;;;6.90;99.90;;;;;;5006355;28;20084;-77
2021/12/29 11:03:22;;;;;;;40.20;16.42;;;6.90;99.90;;;;;;5003825;28;20034;-78
2021/12/29 11:05:58;;;;;;;34.03;15.52;;;7.00;99.90;;;;;;4998330;28;20101;-75
2021/12/29 11:08:25;;;;;;;32.38;15.68;;;7.00;99.90;;;;;;5003884;28;20034;-76
2021/12/29 11:10:54;;;;;;;37.53;16.20;;;7.00;99.90;;;;;;5007354;28;20133;-75
2021/12/29 11:13:27;;;;;;;37.20;15.15;;;7.00;99.90;;;;;;4996249;28;20537;-75
2021/12/29 11:15:54;;;;;;;36.50;15.43;;;6.80;99.90;;;;;;5009342;28;20041;-76
2021/12/29 11:18:20;;;;;;;37.08;15.80;;;;;;;;;;4999984;28;20032;-76
2021/12/29 11:20:46;;;;;;;33.08;15.45;;;;;;;;;;4990332;28;20031;-76
2021/12/29 11:23:17;;;;;;;37.30;16.40;;;6.90;99.90;;;;;;4997193;28;20058;-76
2021/12/29 11:25:44;;;;;;;41.50;16.33;;;6.90;99.90;;;;;;5007941;28;20044;-79
2021/12/29 11:28:30;;;;;;;36.30;16.48;;;7.00;99.90;;;;;;5000518;28;20037;-79
2021/12/29 11:30:58;;;;;;;34.75;16.65;;;7.20;99.90;;;;;;5001370;28;20107;-79
2021/12/29 11:33:28;;;;;;;41.15;15.82;;;7.30;99.90;;;;;;4993969;28;20030;-79
2021/12/29 11:35:54;;;;;;;48.45;17.25;;;7.10;99.90;;;;;;4999850;28;20041;-71
2021/12/29 11:38:22;;;;;;;34.90;16.33;;;7.20;99.90;;;;;;5001464;28;20026;-71
2021/12/29 11:40:52;;;;;;;64.18;23.08;;;7.10;99.90;;;;;;5002101;28;20077;-70
2021/12/29 11:43:20;;;;;;;43.95;16.63;;;7.00;99.90;;;;;;4991771;28;20468;-69
2021/12/29 11:45:49;;;;;;;35.88;16.58;;;6.90;99.90;;;;;;4991921;28;20053;-71
2021/12/29 11:48:17;;;;;;;45.38;18.17;;;6.90;99.90;;;;;;4991851;28;20022;-70
2021/12/29 11:50:56;;;;;;;39.55;17.27;;;6.80;99.90;;;;;;4989530;28;20493;-71
2021/12/29 11:53:38;;;;;;;43.15;17.33;;;6.70;99.90;;;;;;5006028;28;20030;-68
2021/12/29 11:56:14;;;;;;;32.13;16.40;;;6.60;99.90;;;;;;4995976;28;20052;-71
2021/12/29 11:58:43;;;;;;;39.88;17.40;;;;;;;;;;5004132;28;20095;-78
2021/12/29 12:01:10;;;;;;;48.15;18.88;;;6.50;99.90;;;;;;5006274;28;20114;-80
2021/12/29 12:03:57;;;;;;;47.45;19.02;;;6.50;99.90;;;;;;5004174;28;20025;-80
2021/12/29 12:06:27;;;;;;;41.33;19.55;;;6.50;99.90;;;;;;4981668;28;20022;-77
2021/12/29 12:09:10;;;;;;;44.20;17.80;;;6.50;99.90;;;;;;4992843;28;20053;-78
2021/12/29 12:11:41;;;;;;;52.97;19.65;;;6.60;99.90;;;;;;4998135;28;20037;-82
2021/12/29 12:14:19;;;;;;;50.17;19.55;;;6.60;99.90;;;;;;4997152;28;20112;-79
2021/12/29 12:17:01;;;;;;;55.45;21.25;;;6.70;99.90;;;;;;4995639;28;20034;-80
2021/12/29 12:19:29;;;;;;;43.72;19.90;;;6.70;99.90;;;;;;4986367;28;20033;-80
2021/12/29 12:22:16;;;;;;;50.38;18.20;;;6.80;99.90;;;;;;4994371;28;20033;-78
2021/12/29 12:24:59;;;;;;;48.75;19.58;;;6.90;99.90;;;;;;4995160;28;20546;-77
2021/12/29 12:27:41;;;;;;;58.60;19.65;;;6.80;99.90;;;;;;4994235;28;20030;-81
2021/12/29 12:30:15;;;;;;;58.08;20.05;;;6.70;99.90;;;;;;4296340;28;10000709;-80
2021/12/29 12:32:41;;;;;;;59.75;22.67;;;;;;;;;;4987507;28;20058;-77
2021/12/29 12:35:07;;;;;;;56.17;21.85;;;;;;;;;;4994214;28;20127;-75
2021/12/29 12:37:36;;;;;;;63.40;21.48;;;6.70;99.90;;;;;;4983521;28;20034;-80
2021/12/29 12:40:12;;;;;;;60.90;20.80;;;7.10;99.90;;;;;;4993626;28;20097;-82
2021/12/29 12:42:39;;;;;;;58.28;19.83;;;6.70;99.90;;;;;;4989777;28;20056;-78
2021/12/29 12:45:20;;;;;;;52.58;21.75;;;6.40;99.90;;;;;;4990839;28;20080;-78
2021/12/29 12:47:45;;;;;;;57.33;19.90;;;6.80;99.90;;;;;;4992373;28;20581;-79
2021/12/29 12:50:23;;;;;;;63.35;23.45;;;6.80;99.90;;;;;;4988073;28;20033;-76
2021/12/29 12:52:52;;;;;;;53.00;21.20;;;6.70;99.90;;;;;;5003478;28;20524;-76
2021/12/29 12:55:18;;;;;;;55.28;21.02;;;6.50;99.90;;;;;;4989350;28;20026;-79